Time;durP1;ratioP1;P1;durP2;ratioP2;P2;SDS_P1;SDS_P2;PMS_P1;PMS_P2;Temp;Humidity;BMP_temperature;BMP_pressure;BME280_temperature;BME280_humidity;BME280_pressure;Samples;Min_cycle;Max_cycle;Signal;HPM_P1;HPM_P2
2023/07/12 00:00:30;;;;;;;8.63;7.78;;;;;;;23.81;70.47;96729.31;6013704;23;20074;-78
2023/07/12 00:02:56;;;;;;;8.88;7.53;;;;;;;23.71;70.98;96730.59;5981545;23;20012;-79
2023/07/12 00:05:26;;;;;;;7.82;7.03;;;;;;;23.67;71.12;96727.84;5979468;23;20023;-78
2023/07/12 00:07:51;;;;;;;7.80;6.97;;;;;;;23.68;70.69;96732.06;5980090;23;20185;-79
2023/07/12 00:10:25;;;;;;;8.18;7.18;;;;;;;23.87;70.05;96723.44;5976332;23;20154;-79
2023/07/12 00:12:51;;;;;;;7.93;6.80;;;;;;;23.73;70.74;96731.00;5976133;23;20303;-79
2023/07/12 00:15:22;;;;;;;10.18;7.50;;;;;;;23.72;70.79;96719.63;5975903;23;20173;-79
2023/07/12 00:17:52;;;;;;;9.05;6.40;;;;;;;23.70;71.23;96718.41;5974911;23;20180;-80
2023/07/12 00:20:29;;;;;;;8.45;7.10;;;;;;;23.68;70.73;96710.00;5975881;23;20460;-79
2023/07/12 00:22:55;;;;;;;8.57;7.25;;;;;;;23.65;70.66;96716.78;5975904;23;20207;-79
2023/07/12 00:25:22;;;;;;;7.93;7.10;;;;;;;23.67;70.57;96711.88;5976475;23;20243;-80
2023/07/12 00:27:48;;;;;;;8.02;6.97;;;;;;;23.56;71.16;96708.16;5951534;23;20328;-79
2023/07/12 00:30:15;;;;;;;8.02;7.20;;;;;;;23.64;71.46;96703.81;5985357;23;20158;-79
2023/07/12 00:32:40;;;;;;;7.25;6.55;;;;;;;23.48;71.17;96709.88;5976166;23;20549;-78
2023/07/12 00:35:06;;;;;;;9.90;7.15;;;;;;;23.51;71.67;96706.56;5976293;23;20188;-79
2023/07/12 00:37:32;;;;;;;7.68;6.80;;;;;;;23.53;71.13;96708.88;5975779;23;20206;-78
2023/07/12 00:39:57;;;;;;;7.47;6.45;;;;;;;23.43;71.46;96725.31;5985224;23;20340;-78
2023/07/12 00:42:27;;;;;;;7.65;6.80;;;;;;;23.64;70.89;96725.84;6009556;23;20314;-80
2023/07/12 00:44:55;;;;;;;7.97;6.57;;;;;;;23.57;71.46;96720.34;5985663;23;20349;-80
2023/07/12 00:47:21;;;;;;;7.40;6.30;;;;;;;23.58;71.48;96719.25;6010729;23;20138;-79
2023/07/12 00:49:46;;;;;;;7.22;6.38;;;;;;;23.43;71.53;96714.69;6010070;23;20429;-78
2023/07/12 00:52:17;;;;;;;12.13;6.82;;;;;;;23.45;71.93;96717.78;6009772;23;20334;-79
2023/07/12 00:54:51;;;;;;;11.02;7.25;;;;;;;23.53;71.68;96722.94;6010209;23;20182;-79
2023/07/12 00:57:17;;;;;;;7.80;6.65;;;;;;;23.48;71.85;96738.34;6009731;23;20165;-80
2023/07/12 00:59:43;;;;;;;6.72;6.03;;;;;;;23.49;71.19;96729.25;6007455;23;20192;-78
2023/07/12 01:02:08;;;;;;;7.57;6.22;;;;;;;23.55;71.36;96735.88;5979934;23;20402;-80
2023/07/12 01:04:47;;;;;;;7.82;6.15;;;;;;;23.68;70.97;96721.41;6021608;23;20131;-83
2023/07/12 01:07:13;;;;;;;8.25;7.18;;;;;;;23.56;71.13;96714.28;6026257;23;20007;-82
2023/07/12 01:09:39;;;;;;;7.20;6.47;;;;;;;23.64;71.34;96709.16;6034112;23;20004;-82
2023/07/12 01:12:05;;;;;;;7.30;6.32;;;;;;;23.49;71.32;96692.06;6068377;23;20033;-82
2023/07/12 01:14:30;;;;;;;8.65;6.95;;;;;;;23.54;71.50;96692.59;6061899;23;20073;-83
2023/07/12 01:17:01;;;;;;;7.40;6.60;;;;;;;23.67;70.81;96698.59;6069405;23;20074;-82
2023/07/12 01:19:28;;;;;;;8.20;6.32;;;;;;;23.49;71.51;96692.84;6033634;23;20680;-83
2023/07/12 01:21:54;;;;;;;8.40;6.15;;;;;;;23.54;71.31;96692.59;6027438;23;20674;-82
2023/07/12 01:24:21;;;;;;;6.82;6.13;;;;;;;23.58;71.18;96694.53;6068324;23;20004;-83
2023/07/12 01:26:50;;;;;;;7.35;6.53;;;;;;;23.51;71.24;96679.97;6032916;23;20007;-82
2023/07/12 01:29:16;;;;;;;8.20;6.47;;;;;;;23.55;71.20;96701.34;6058907;23;20003;-82
2023/07/12 01:31:43;;;;;;;6.97;5.95;;;;;;;23.44;71.25;96686.97;6045732;23;20847;-82
2023/07/12 01:34:08;;;;;;;8.10;5.93;;;;;;;23.48;71.26;96685.22;6045714;23;20019;-83
2023/07/12 01:36:34;;;;;;;6.53;5.93;;;;;;;23.42;70.59;96670.63;6033348;23;20003;-83
2023/07/12 01:39:01;;;;;;;10.07;6.53;;;;;;;23.48;71.23;96679.91;6070842;23;20053;-82
2023/07/12 01:41:27;;;;;;;8.65;7.22;;;;;;;23.55;70.91;96688.03;6041837;23;20093;-82
2023/07/12 01:43:53;;;;;;;6.68;5.97;;;;;;;23.45;71.00;96688.53;6030225;23;20659;-83
2023/07/12 01:46:19;;;;;;;6.95;5.95;;;;;;;23.33;71.57;96660.91;6041274;23;20007;-83
2023/07/12 01:48:44;;;;;;;7.82;5.78;;;;;;;23.46;71.11;96676.78;6071957;23;20728;-82
2023/07/12 01:51:11;;;;;;;9.35;6.43;;;;;;;23.51;70.50;96684.50;6040911;23;20593;-83
2023/07/12 01:53:36;;;;;;;7.00;6.30;;;;;;;23.41;71.02;96674.38;6069727;23;20038;-82
2023/07/12 01:56:03;;;;;;;8.15;6.30;;;;;;;23.35;71.18;96665.88;6043242;23;20672;-83
2023/07/12 01:58:29;;;;;;;8.75;6.95;;;;;;;23.19;70.67;96641.97;6041848;23;20441;-82
2023/07/12 02:00:55;;;;;;;8.02;6.55;;;;;;;23.38;71.43;96679.25;6027318;23;20045;-82
2023/07/12 02:03:21;;;;;;;7.05;6.35;;;;;;;23.38;71.21;96676.59;6047708;23;20034;-83
2023/07/12 02:05:46;;;;;;;7.40;6.35;;;;;;;23.42;70.96;96681.25;6032781;23;20007;-83
2023/07/12 02:08:12;;;;;;;7.97;7.00;;;;;;;23.35;71.08;96665.88;6086303;23;20078;-82
2023/07/12 02:10:38;;;;;;;7.32;6.63;;;;;;;23.38;71.09;96679.25;6090022;23;20014;-82
2023/07/12 02:13:03;;;;;;;7.80;6.53;;;;;;;23.28;71.38;96669.13;6038208;23;20011;-83
2023/07/12 02:15:29;;;;;;;7.22;6.35;;;;;;;23.22;71.52;96653.78;6052016;23;20038;-82
2023/07/12 02:17:54;;;;;;;8.52;6.28;;;;;;;23.28;71.08;96657.75;6037430;23;20745;-83
2023/07/12 02:20:20;;;;;;;7.93;6.18;;;;;;;23.31;71.33;96659.72;6062281;23;20008;-82
2023/07/12 02:22:47;;;;;;;7.88;6.72;;;;;;;23.24;71.12;96652.34;6014517;23;20004;-82
2023/07/12 02:25:13;;;;;;;7.50;6.80;;;;;;;23.09;71.49;96653.06;6014345;23;20570;-82
2023/07/12 02:27:39;;;;;;;8.88;7.00;;;;;;;23.23;71.62;96661.41;6020179;23;20004;-83
2023/07/12 02:30:06;;;;;;;7.13;6.35;;;;;;;23.27;71.23;96653.53;6026417;23;20011;-83
2023/07/12 02:32:32;;;;;;;7.95;7.15;;;;;;;23.19;71.35;96647.28;5972290;23;20597;-82
2023/07/12 02:34:57;;;;;;;8.93;7.15;;;;;;;23.03;71.72;96630.47;6042809;23;20086;-83
2023/07/12 02:37:23;;;;;;;7.97;6.85;;;;;;;23.22;71.19;96635.97;6040095;23;20003;-83
2023/07/12 02:39:48;;;;;;;8.10;7.13;;;;;;;23.22;71.48;96635.97;6067872;23;20003;-83
2023/07/12 02:42:13;;;;;;;10.27;6.72;;;;;;;23.26;71.44;96642.13;6072712;23;20007;-84
2023/07/12 02:44:42;;;;;;;9.27;7.03;;;;;;;23.07;71.68;96623.44;6075778;23;20528;-84
2023/07/12 02:47:09;;;;;;;9.65;7.47;;;;;;;23.24;71.67;96641.72;6075625;23;20889;-83
2023/07/12 02:49:37;;;;;;;11.38;7.32;;;;;;;23.25;70.86;96634.50;6052720;23;19996;-83
2023/07/12 02:52:04;;;;;;;8.70;7.57;;;;;;;23.25;71.98;96639.81;6058610;23;20007;-84
2023/07/12 02:54:34;;;;;;;8.82;7.85;;;;;;;22.95;71.62;96603.75;6050846;23;20011;-83
2023/07/12 02:57:01;;;;;;;9.82;7.50;;;;;;;23.01;71.47;96609.56;6022035;23;20042;-83
2023/07/12 02:59:27;;;;;;;9.57;7.72;;;;;;;23.10;71.85;96647.44;6086665;23;20058;-83
2023/07/12 03:01:52;;;;;;;9.63;7.82;;;;;;;23.15;71.79;96641.06;6020804;23;20474;-85
2023/07/12 03:04:19;;;;;;;11.02;8.18;;;;;;;23.11;71.78;96654.25;6015370;23;20022;-83
2023/07/12 03:06:45;;;;;;;9.45;7.55;;;;;;;22.97;71.83;96628.06;6053686;23;20011;-83
2023/07/12 03:09:10;;;;;;;11.50;7.93;;;;;;;23.02;72.09;96664.25;6043903;23;20269;-82
2023/07/12 03:11:36;;;;;;;8.65;7.75;;;;;;;23.11;72.01;96645.53;6018942;23;20003;-82
2023/07/12 03:14:02;;;;;;;8.90;8.05;;;;;;;23.07;71.61;96644.69;6070004;23;20011;-83
2023/07/12 03:16:27;;;;;;;10.52;7.90;;;;;;;23.24;71.78;96667.50;6025278;23;20057;-83
2023/07/12 03:18:53;;;;;;;8.35;7.55;;;;;;;23.28;71.47;96665.72;6015156;23;20640;-84
2023/07/12 03:21:18;;;;;;;11.77;8.48;;;;;;;23.24;71.57;96664.84;6054430;23;20361;-83
2023/07/12 03:23:44;;;;;;;10.63;9.30;;;;;;;23.08;71.58;96625.75;6058127;23;20007;-83
2023/07/12 03:26:09;;;;;;;8.68;7.78;;;;;;;23.27;71.54;96658.84;6048068;23;20007;-83
2023/07/12 03:28:35;;;;;;;8.82;8.00;;;;;;;23.11;72.36;96662.22;6073259;23;20010;-83
2023/07/12 03:31:01;;;;;;;9.77;7.43;;;;;;;23.18;72.40;96661.66;6056627;23;20004;-83
2023/07/12 03:33:27;;;;;;;11.63;8.65;;;;;;;23.04;72.57;96650.63;6034091;23;20022;-83
2023/07/12 03:35:53;;;;;;;11.73;8.43;;;;;;;23.05;72.01;96630.91;6079290;23;20007;-84
2023/07/12 03:38:18;;;;;;;10.88;9.27;;;;;;;23.37;71.28;96672.41;6033261;23;20425;-84
2023/07/12 03:40:45;;;;;;;10.70;8.05;;;;;;;23.36;71.37;96670.88;6033921;23;20054;-83
2023/07/12 03:43:11;;;;;;;9.52;8.23;;;;;;;23.20;71.51;96651.44;6055500;23;20034;-83
2023/07/12 03:45:37;;;;;;;9.43;8.32;;;;;;;23.27;71.57;96669.47;6025407;23;20107;-83
2023/07/12 03:48:02;;;;;;;15.38;9.32;;;;;;;23.16;71.65;96666.53;6015468;23;20296;-83
2023/07/12 03:50:28;;;;;;;11.73;9.02;;;;;;;23.19;71.56;96689.75;6052767;23;20006;-83
2023/07/12 03:52:54;;;;;;;14.38;8.52;;;;;;;23.16;70.80;96669.19;6048641;23;20145;-84
2023/07/12 03:55:20;;;;;;;10.20;8.10;;;;;;;23.18;70.78;96664.31;6042302;23;20558;-83
2023/07/12 03:57:45;;;;;;;10.45;8.07;;;;;;;23.12;71.02;96663.78;6038194;23;20560;-84
2023/07/12 04:00:12;;;;;;;10.35;7.70;;;;;;;23.24;71.28;96694.84;6051423;23;20053;-83
2023/07/12 04:02:40;;;;;;;9.77;8.75;;;;;;;23.32;71.13;96695.78;6041863;23;20688;-85
2023/07/12 04:05:05;;;;;;;10.40;8.73;;;;;;;23.26;71.61;96689.19;6052306;23;20065;-84
2023/07/12 04:07:31;;;;;;;10.20;8.88;;;;;;;23.30;71.25;96709.41;6049239;23;20007;-84
2023/07/12 04:09:57;;;;;;;9.43;8.45;;;;;;;23.27;71.12;96717.28;6013745;23;20802;-83
2023/07/12 04:12:22;;;;;;;12.15;8.13;;;;;;;23.25;71.02;96714.94;6042147;23;20579;-84
2023/07/12 04:14:48;;;;;;;10.20;9.13;;;;;;;23.22;71.99;96723.63;6060867;23;20003;-83
2023/07/12 04:17:14;;;;;;;11.02;9.05;;;;;;;23.03;72.14;96707.47;6024561;23;20078;-83
2023/07/12 04:19:39;;;;;;;12.80;8.48;;;;;;;23.18;71.90;96728.03;6031073;23;20031;-84
2023/07/12 04:22:04;;;;;;;12.05;8.45;;;;;;;23.22;72.25;96749.38;6029100;23;20017;-82
2023/07/12 04:24:31;;;;;;;9.23;8.30;;;;;;;23.37;71.28;96749.47;6072861;23;20599;-83
2023/07/12 04:26:59;;;;;;;9.73;8.68;;;;;;;23.43;72.07;96773.13;6039644;23;20630;-83
2023/07/12 04:29:26;;;;;;;9.60;8.60;;;;;;;23.21;72.06;96755.84;6020045;23;20329;-83
2023/07/12 04:31:51;;;;;;;14.65;9.35;;;;;;;23.44;71.82;96794.06;6045663;23;20050;-83
2023/07/12 04:34:17;;;;;;;10.13;8.57;;;;;;;23.35;71.78;96775.56;6038468;23;20007;-83
2023/07/12 04:36:42;;;;;;;12.35;8.75;;;;;;;23.34;71.57;96775.94;6087686;23;20075;-83
2023/07/12 04:39:08;;;;;;;9.90;8.02;;;;;;;23.44;71.41;96791.41;6068299;23;20456;-83
2023/07/12 04:41:33;;;;;;;9.93;8.80;;;;;;;23.33;71.22;96809.69;6051010;23;20003;-83
2023/07/12 04:44:01;;;;;;;13.63;8.57;;;;;;;23.16;71.88;96797.44;6085249;23;20006;-84
2023/07/12 04:46:26;;;;;;;12.55;8.57;;;;;;;23.38;71.84;96820.06;6028381;23;20620;-83
2023/07/12 04:48:52;;;;;;;11.57;8.55;;;;;;;23.28;71.76;96814.47;6044756;23;20035;-85
2023/07/12 04:51:17;;;;;;;11.52;8.93;;;;;;;23.45;70.92;96818.75;6042410;23;20090;-83
2023/07/12 04:53:47;;;;;;;11.32;8.60;;;;;;;23.45;70.93;96800.13;6084528;23;20015;-83
2023/07/12 04:56:13;;;;;;;9.32;8.43;;;;;;;23.66;70.77;96813.22;6053696;23;20007;-82
2023/07/12 04:58:39;;;;;;;10.80;8.85;;;;;;;23.81;70.63;96838.31;6080371;23;20094;-83
2023/07/12 05:01:06;;;;;;;11.02;9.98;;;;;;;23.74;70.42;96826.38;6020768;23;20035;-82
2023/07/12 05:03:31;;;;;;;10.70;8.63;;;;;;;23.90;70.05;96838.97;6069865;23;20165;-81
2023/07/12 05:05:58;;;;;;;10.93;8.25;;;;;;;23.67;70.71;96810.22;6075222;23;20015;-82
2023/07/12 05:08:23;;;;;;;12.75;9.55;;;;;;;23.82;70.24;96815.94;6076005;23;20222;-82
2023/07/12 05:10:48;;;;;;;13.23;9.35;;;;;;;24.02;69.64;96833.56;6055935;23;20719;-82
2023/07/12 05:13:14;;;;;;;12.02;8.30;;;;;;;23.99;69.14;96821.00;6028513;23;20070;-83
2023/07/12 05:15:39;;;;;;;8.95;8.07;;;;;;;24.04;69.46;96834.03;6051112;23;20733;-82
2023/07/12 05:18:05;;;;;;;13.02;9.93;;;;;;;24.00;69.13;96840.38;6043860;23;20010;-83
2023/07/12 05:20:31;;;;;;;11.05;8.98;;;;;;;24.08;68.81;96847.41;6048547;23;20668;-82
2023/07/12 05:22:56;;;;;;;13.57;9.38;;;;;;;23.92;69.45;96826.09;6067631;23;20050;-83
2023/07/12 05:25:22;;;;;;;9.88;8.55;;;;;;;24.16;68.52;96853.69;6075078;23;20008;-84
2023/07/12 05:27:47;;;;;;;10.15;9.10;;;;;;;23.96;68.97;96845.59;6017936;23;20563;-82
2023/07/12 05:30:13;;;;;;;10.50;8.45;;;;;;;23.95;68.42;96835.28;6006181;23;19995;-81
2023/07/12 05:32:40;;;;;;;10.32;9.05;;;;;;;23.97;69.23;96839.16;6063960;23;20859;-82
2023/07/12 05:35:06;;;;;;;12.43;9.15;;;;;;;23.90;68.66;96834.41;6010864;23;20014;-83
2023/07/12 05:37:32;;;;;;;9.75;8.48;;;;;;;24.00;68.68;96851.78;6033341;23;20085;-83
2023/07/12 05:39:57;;;;;;;10.45;9.43;;;;;;;23.88;68.24;96849.16;6028686;23;20741;-83
2023/07/12 05:42:23;;;;;;;15.93;8.43;;;;;;;24.01;68.19;96845.34;6066344;23;20724;-83
2023/07/12 05:44:48;;;;;;;10.63;9.60;;;;;;;23.91;68.97;96835.19;6005530;23;20019;-82
2023/07/12 05:47:13;;;;;;;10.02;8.93;;;;;;;24.01;68.71;96855.19;6042945;23;20050;-82
2023/07/12 05:49:39;;;;;;;9.90;8.18;;;;;;;24.07;68.15;96859.94;6071346;23;19999;-83
2023/07/12 05:52:05;;;;;;;12.45;9.27;;;;;;;23.97;67.49;96843.69;6045127;23;20014;-82
2023/07/12 05:54:30;;;;;;;10.55;9.45;;;;;;;23.90;69.06;96846.94;6044229;23;20014;-83
2023/07/12 05:56:56;;;;;;;10.43;9.32;;;;;;;23.89;68.46;96853.38;6024496;23;20003;-83
2023/07/12 05:59:21;;;;;;;12.25;9.50;;;;;;;23.81;68.66;96825.03;6052737;23;20004;-82
2023/07/12 06:01:47;;;;;;;12.27;10.35;;;;;;;23.87;69.29;96836.97;6045222;23;20860;-82
2023/07/12 06:04:12;;;;;;;13.02;11.55;;;;;;;23.97;69.25;96855.09;6071446;23;20021;-82
2023/07/12 06:06:38;;;;;;;12.38;10.38;;;;;;;23.99;68.58;96846.78;6018511;23;20003;-81
2023/07/12 06:09:04;;;;;;;11.82;10.63;;;;;;;24.15;68.01;96849.50;6027166;23;20073;-82
2023/07/12 06:11:30;;;;;;;15.43;11.68;;;;;;;24.18;68.01;96848.78;6073176;23;20015;-83
2023/07/12 06:13:55;;;;;;;11.77;10.57;;;;;;;24.15;68.50;96865.47;6045599;23;20737;-82
2023/07/12 06:16:20;;;;;;;12.32;11.13;;;;;;;24.12;69.07;96872.97;6077023;23;20200;-83
2023/07/12 06:18:46;;;;;;;13.85;12.43;;;;;;;24.18;68.10;96870.06;6086963;23;20011;-82
2023/07/12 06:21:11;;;;;;;14.35;12.85;;;;;;;24.18;67.33;96864.75;6034227;23;20027;-83
2023/07/12 06:23:37;;;;;;;14.70;13.15;;;;;;;24.07;67.78;96859.16;6053249;23;20312;-83
2023/07/12 06:26:03;;;;;;;13.88;12.57;;;;;;;24.08;67.46;96869.47;6041215;23;20008;-83
2023/07/12 06:28:28;;;;;;;15.20;12.55;;;;;;;24.04;68.51;96863.28;6019006;23;20004;-82
2023/07/12 06:30:54;;;;;;;19.20;13.48;;;;;;;24.16;66.82;96877.63;6060829;23;20057;-83
2023/07/12 06:33:20;;;;;;;16.85;13.90;;;;;;;24.08;68.15;96879.34;6067052;23;20701;-82
2023/07/12 06:35:45;;;;;;;15.45;13.93;;;;;;;24.18;67.22;96881.50;6043514;23;20014;-83
2023/07/12 06:38:11;;;;;;;14.68;13.27;;;;;;;24.22;66.52;96886.91;6039566;23;20552;-83
2023/07/12 06:40:41;;;;;;;18.10;14.68;;;;;;;24.25;65.88;96883.59;6068973;23;20155;-82
2023/07/12 06:43:07;;;;;;;15.75;14.23;;;;;;;24.13;66.89;96871.13;6060456;23;20011;-82
2023/07/12 06:45:32;;;;;;;22.75;14.60;;;;;;;24.10;67.28;96861.91;6035524;23;20069;-83
2023/07/12 06:47:59;;;;;;;22.35;15.45;;;;;;;24.32;67.58;96891.75;6061817;23;20010;-82
2023/07/12 06:50:25;;;;;;;16.85;14.88;;;;;;;24.00;67.68;96854.44;6077356;23;20359;-81
2023/07/12 06:52:52;;;;;;;19.13;15.63;;;;;;;24.12;68.49;96865.00;6054879;23;20007;-82
2023/07/12 06:55:17;;;;;;;16.30;14.50;;;;;;;24.39;68.71;96891.16;6029662;23;20011;-81
2023/07/12 06:57:42;;;;;;;15.30;13.70;;;;;;;24.33;66.48;96874.66;6005527;23;20462;-82
2023/07/12 07:00:10;;;;;;;17.65;15.52;;;;;;;24.23;66.25;96888.44;6002845;23;20043;-82
2023/07/12 07:02:35;;;;;;;16.30;14.65;;;;;;;24.20;66.45;96873.94;6042056;23;20015;-82
2023/07/12 07:05:01;;;;;;;16.70;14.85;;;;;;;24.39;65.47;96897.25;6005325;23;20014;-82
2023/07/12 07:07:28;;;;;;;17.33;15.35;;;;;;;24.51;65.08;96906.28;6063656;23;20695;-82
2023/07/12 07:09:53;;;;;;;18.42;16.42;;;;;;;24.49;66.95;96907.38;6057168;23;19999;-83
2023/07/12 07:12:18;;;;;;;17.02;15.45;;;;;;;24.68;67.21;96898.00;6029481;23;20003;-83
2023/07/12 07:14:44;;;;;;;15.07;13.57;;;;;;;24.67;66.05;96875.13;6059055;23;20544;-83
2023/07/12 07:17:10;;;;;;;15.93;13.45;;;;;;;24.99;65.13;96891.88;6050947;23;20729;-82
2023/07/12 07:19:37;;;;;;;17.15;15.10;;;;;;;25.16;65.20;96908.63;6006986;23;20715;-82
2023/07/12 07:22:02;;;;;;;15.57;13.90;;;;;;;25.16;64.93;96901.38;6076506;23;20011;-83
2023/07/12 07:24:28;;;;;;;13.95;12.65;;;;;;;25.30;64.05;96910.84;6030840;23;20014;-83
2023/07/12 07:26:53;;;;;;;14.07;12.63;;;;;;;25.09;64.13;96882.59;6022343;23;20726;-82
2023/07/12 07:29:19;;;;;;;15.57;14.07;;;;;;;25.24;64.10;96905.75;6035141;23;20006;-83
2023/07/12 07:31:44;;;;;;;17.63;16.02;;;;;;;25.13;63.14;96896.75;6063145;23;20003;-83
2023/07/12 07:34:09;;;;;;;15.20;13.70;;;;;;;25.43;64.02;96909.63;6058274;23;20670;-82
2023/07/12 07:36:35;;;;;;;17.65;14.48;;;;;;;25.50;62.91;96899.09;6033923;23;20090;-83
2023/07/12 07:39:01;;;;;;;17.25;15.50;;;;;;;25.54;62.86;96910.59;6064547;23;20034;-83
2023/07/12 07:41:27;;;;;;;17.48;15.80;;;;;;;25.59;62.17;96910.34;6001609;23;20008;-83
2023/07/12 07:43:53;;;;;;;18.95;17.00;;;;;;;25.72;60.71;96910.19;6004012;23;20752;-83
2023/07/12 07:46:18;;;;;;;19.80;17.83;;;;;;;25.86;60.39;96899.84;6049813;23;20018;-82
2023/07/12 07:48:43;;;;;;;19.58;17.13;;;;;;;26.11;60.13;96912.91;6034202;23;20580;-83
2023/07/12 07:51:10;;;;;;;18.25;16.42;;;;;;;26.02;60.61;96904.34;6025664;23;20428;-82
2023/07/12 07:53:35;;;;;;;16.98;15.15;;;;;;;26.05;59.61;96903.66;6058212;23;20568;-83
2023/07/12 07:56:01;;;;;;;19.40;15.82;;;;;;;25.97;60.23;96908.81;6061500;23;19999;-83
2023/07/12 07:58:26;;;;;;;17.08;15.38;;;;;;;26.05;59.88;96912.41;6030337;23;20003;-83
2023/07/12 08:00:52;;;;;;;17.00;15.50;;;;;;;25.93;59.03;96907.22;6058578;23;20004;-81
2023/07/12 08:03:17;;;;;;;18.02;16.30;;;;;;;25.97;57.97;96916.84;6053411;23;20562;-83
2023/07/12 08:05:43;;;;;;;18.08;16.17;;;;;;;25.88;58.23;96908.25;6002185;23;20027;-83
2023/07/12 08:08:09;;;;;;;18.27;16.35;;;;;;;25.72;60.96;96912.88;6041860;23;20039;-83
2023/07/12 08:10:35;;;;;;;17.98;16.17;;;;;;;26.08;58.71;96922.41;6002485;23;20011;-83
2023/07/12 08:13:01;;;;;;;19.75;17.75;;;;;;;25.73;62.80;96911.75;6035540;23;20856;-82
2023/07/12 08:15:26;;;;;;;19.33;17.25;;;;;;;25.83;62.37;96916.53;6051210;23;20008;-84
2023/07/12 08:17:52;;;;;;;16.35;14.85;;;;;;;26.30;57.99;96928.91;6025287;23;20664;-82
2023/07/12 08:20:18;;;;;;;15.15;13.75;;;;;;;26.51;55.35;96923.16;6057515;23;20011;-82
2023/07/12 08:22:43;;;;;;;14.38;12.98;;;;;;;26.61;55.95;96916.44;6046290;23;20035;-83
2023/07/12 08:25:09;;;;;;;15.45;13.65;;;;;;;26.63;57.41;96924.13;6048611;23;20011;-83
2023/07/12 08:27:35;;;;;;;13.57;12.27;;;;;;;26.70;54.98;96933.06;6056643;23;20000;-82
2023/07/12 08:30:01;;;;;;;13.25;12.05;;;;;;;26.51;56.45;96935.72;6022990;23;20102;-82
2023/07/12 08:32:30;;;;;;;12.98;11.80;;;;;;;26.27;55.59;96932.28;6032651;23;20003;-81
2023/07/12 08:34:56;;;;;;;12.50;11.38;;;;;;;26.24;56.39;96926.88;6051061;23;20019;-82
2023/07/12 08:37:23;;;;;;;12.95;11.95;;;;;;;26.07;58.94;96928.09;6057561;23;20535;-81
2023/07/12 08:39:48;;;;;;;13.63;11.40;;;;;;;26.34;55.40;96937.75;6047765;23;20140;-79
2023/07/12 08:42:18;;;;;;;11.50;10.38;;;;;;;26.46;55.14;96928.00;6047039;23;20044;-82
2023/07/12 08:44:44;;;;;;;11.60;10.40;;;;;;;26.54;56.99;96937.69;6053461;23;20169;-81
2023/07/12 08:47:17;;;;;;;12.80;11.48;;;;;;;26.63;55.53;96934.81;6054866;23;20339;-82
2023/07/12 08:49:43;;;;;;;12.50;11.30;;;;;;;26.83;58.31;96944.31;6022709;23;20018;-82
2023/07/12 08:52:14;;;;;;;11.88;10.32;;;;;;;27.20;53.10;96943.00;6044407;23;20090;-82
2023/07/12 08:54:40;;;;;;;11.57;10.52;;;;;;;27.45;51.05;96938.03;6055721;23;20713;-81
2023/07/12 08:57:14;;;;;;;10.60;9.70;;;;;;;27.58;52.04;96944.69;5997654;23;20042;-81
2023/07/12 08:59:40;;;;;;;12.00;10.90;;;;;;;27.27;54.20;96937.75;6030797;23;20038;-82
2023/07/12 09:02:23;;;;;;;11.18;10.15;;;;;;;27.77;52.07;96946.47;6043654;23;20014;-81
2023/07/12 09:04:49;;;;;;;12.10;10.68;;;;;;;28.01;50.20;96939.91;6042591;23;20011;-81
2023/07/12 09:07:28;;;;;;;11.07;9.98;;;;;;;28.12;48.25;96941.94;6026024;23;20223;-81
2023/07/12 09:09:55;;;;;;;10.45;9.25;;;;;;;27.95;50.30;96929.91;6052774;23;20619;-80
2023/07/12 09:12:30;;;;;;;9.80;8.05;;;;;;;28.18;47.70;96956.56;6050918;23;20007;-80
2023/07/12 09:14:59;;;;;;;;;;;;;;;28.23;48.32;96955.47;6052766;23;20015;-78
2023/07/12 09:17:28;;;;;;;7.30;6.60;;;;;;;28.36;46.94;96957.53;6016606;23;20114;-81
2023/07/12 09:19:54;;;;;;;7.30;6.70;;;;;;;28.70;45.18;96952.16;6039172;23;20737;-80
2023/07/12 09:22:20;;;;;;;7.32;6.72;;;;;;;28.61;49.48;96946.31;6039741;23;20025;-81
2023/07/12 09:24:55;;;;;;;7.28;6.57;;;;;;;28.91;47.77;96940.06;5994894;23;20102;-81
2023/07/12 09:27:24;;;;;;;6.80;5.22;;;;;;;29.15;47.31;96952.13;6042208;23;20081;-80
2023/07/12 09:30:09;;;;;;;4.70;4.30;;;;;;;29.42;45.55;96957.28;6027557;23;20011;-80
2023/07/12 09:32:36;;;;;;;5.20;4.30;;;;;;;29.25;44.17;96953.34;5991558;23;20007;-82
2023/07/12 09:35:29;;;;;;;4.85;4.45;;;;;;;29.25;44.16;96956.81;6049324;23;20719;-81
2023/07/12 09:38:00;;;;;;;4.20;3.88;;;;;;;29.13;44.59;96957.06;6014307;23;20008;-81
2023/07/12 09:40:30;;;;;;;3.45;3.15;;;;;;;29.19;43.59;96958.28;6015879;23;20022;-81
2023/07/12 09:42:57;;;;;;;4.40;3.30;;;;;;;29.07;43.85;96956.66;6025867;23;20073;-81
2023/07/12 09:45:26;;;;;;;3.17;2.95;;;;;;;29.27;43.10;96953.75;6024918;23;20014;-80
2023/07/12 09:47:57;;;;;;;5.63;3.30;;;;;;;29.39;42.66;96960.72;6048799;23;20644;-81
2023/07/12 09:50:40;;;;;;;4.05;3.22;;;;;;;29.16;44.47;96956.34;5950815;23;20091;-81
2023/07/12 09:53:11;;;;;;;3.63;3.33;;;;;;;28.64;46.76;96960.88;5989723;23;20011;-81
2023/07/12 09:55:45;;;;;;;3.58;2.97;;;;;;;28.58;44.55;96961.22;6048610;23;20835;-80
2023/07/12 09:58:33;;;;;;;3.03;2.83;;;;;;;28.72;46.08;96973.19;6013993;23;20701;-80
2023/07/12 10:01:04;;;;;;;3.85;3.20;;;;;;;28.50;44.03;96972.19;5989193;23;20817;-80
2023/07/12 10:03:36;;;;;;;3.10;2.90;;;;;;;28.34;44.85;96972.41;6037625;23;20791;-80
2023/07/12 10:06:29;;;;;;;3.47;3.10;;;;;;;28.42;45.63;96976.69;5950128;23;20010;-80
2023/07/12 10:09:00;;;;;;;3.42;3.10;;;;;;;28.43;44.45;96975.56;5915202;23;20039;-80
2023/07/12 10:11:33;;;;;;;2.65;2.42;;;;;;;28.23;44.75;96974.97;6013643;23;20015;-79
2023/07/12 10:14:03;;;;;;;2.97;2.78;;;;;;;28.22;44.97;96986.81;6023963;23;20006;-80
2023/07/12 10:16:34;;;;;;;4.07;3.67;;;;;;;28.17;43.97;96977.22;6013914;23;20779;-79
2023/07/12 10:19:16;;;;;;;3.58;2.97;;;;;;;28.23;43.78;96985.69;5990083;23;20533;-79
2023/07/12 10:21:41;;;;;;;2.47;2.28;;;;;;;28.10;45.13;96985.13;6013629;23;20192;-80
2023/07/12 10:24:13;;;;;;;2.97;2.65;;;;;;;28.27;45.39;96983.03;5987311;23;20011;-79
2023/07/12 10:26:38;;;;;;;2.58;2.40;;;;;;;27.97;46.81;96978.50;6023135;23;20090;-80
2023/07/12 10:29:19;;;;;;;3.67;2.42;;;;;;;27.71;47.90;96972.03;6015347;23;20038;-80
2023/07/12 10:31:51;;;;;;;2.47;2.15;;;;;;;28.05;46.74;96982.78;5924688;23;20014;-80
2023/07/12 10:34:39;;;;;;;2.80;2.25;;;;;;;28.52;45.52;96991.34;6022677;23;20007;-79
2023/07/12 10:37:14;;;;;;;2.42;2.20;;;;;;;28.91;44.43;96962.28;6013226;23;20011;-79
2023/07/12 10:39:40;;;;;;;2.42;2.10;;;;;;;28.89;43.74;96986.00;6048124;23;20011;-81
2023/07/12 10:42:12;;;;;;;2.35;2.08;;;;;;;29.29;44.72;96965.66;6015100;23;20261;-79
2023/07/12 10:44:43;;;;;;;3.53;2.60;;;;;;;29.73;43.01;96971.25;6013165;23;20008;-80
2023/07/12 10:47:14;;;;;;;2.83;2.58;;;;;;;29.58;45.37;96976.56;6023214;23;20655;-80
2023/07/12 10:50:07;;;;;;;2.67;2.47;;;;;;;29.89;43.31;96969.09;6015705;23;21002;-81
2023/07/12 10:52:45;;;;;;;2.90;2.58;;;;;;;29.85;41.05;96969.06;6040062;23;20588;-80
2023/07/12 10:55:20;;;;;;;2.55;2.35;;;;;;;29.49;41.66;96968.06;6014769;23;20718;-80
2023/07/12 10:57:51;;;;;;;2.55;2.13;;;;;;;29.63;41.54;96973.53;6014633;23;20106;-81
2023/07/12 11:00:26;;;;;;;2.30;1.90;;;;;;;29.39;40.33;96958.81;5988626;23;20018;-79
2023/07/12 11:03:10;;;;;;;2.33;1.98;;;;;;;29.25;43.04;96970.22;6014177;23;20018;-80
2023/07/12 11:05:47;;;;;;;1.75;1.65;;;;;;;29.08;42.29;96981.53;6038640;23;20026;-80
2023/07/12 11:08:31;;;;;;;1.95;1.80;;;;;;;29.34;41.94;96983.31;6037586;23;20010;-79
2023/07/12 11:11:08;;;;;;;2.75;1.77;;;;;;;29.31;39.39;96979.44;5938972;23;20015;-79
2023/07/12 11:13:45;;;;;;;1.40;1.30;;;;;;;29.13;40.24;96984.66;6036527;23;20875;-79
2023/07/12 11:16:19;;;;;;;2.78;1.60;;;;;;;29.03;39.72;96968.47;5988387;23;19999;-80
2023/07/12 11:18:54;;;;;;;1.95;1.50;;;;;;;28.98;42.41;96968.81;6036617;23;20642;-78
2023/07/12 11:21:50;;;;;;;1.70;1.60;;;;;;;28.89;41.17;96983.31;6036815;23;20086;-79
2023/07/12 11:24:24;;;;;;;2.08;1.58;;;;;;;28.81;41.04;96986.31;6013630;23;20787;-79
2023/07/12 11:26:58;;;;;;;2.00;1.60;;;;;;;28.75;40.33;96980.50;5948854;23;20084;-79
2023/07/12 11:29:32;;;;;;;2.88;1.60;;;;;;;28.51;40.92;96981.75;6036496;23;20003;-79